Hourly Weather Data (10:00 to 16:00)
Since 6th June 2021
Weather data from the last 28 entires
| Date | Time | Rain Last Hour | Sunshine | Temp | Humidity | Max Gust | Air Pressure |
|---|---|---|---|---|---|---|---|
| 2026-08-29 | 10:00:17 | 0.4mm | 0.07hrs | 18.2°C | 90% RH | 6.7m/s | 1,000.3hpa |
| 2026-08-29 | 11:00:17 | 0.0mm | 0.20hrs | 19.9°C | 87% RH | 6.7m/s | 999.9hpa |
| 2026-08-29 | 12:00:17 | 0.8mm | 0.00hrs | 19.9°C | 88% RH | 4.5m/s | 999.7hpa |
| 2026-08-29 | 13:00:17 | 4.0mm | 0.00hrs | 19.8°C | 91% RH | 5.4m/s | 998.8hpa |
| 2026-08-29 | 14:00:17 | 0.2mm | 0.13hrs | 19.9°C | 91% RH | 2.2m/s | 998.7hpa |
| 2026-08-29 | 15:00:17 | 0.0mm | 0.55hrs | 21.8°C | 82% RH | 5.4m/s | 999.1hpa |
| 2026-08-29 | 16:00:17 | 0.0mm | 0.53hrs | 21.2°C | 83% RH | 6.7m/s | 999.5hpa |
| 2026-08-30 | 10:00:18 | 0.0mm | 0.43hrs | 19.4°C | 81% RH | 4.5m/s | 1,008.1hpa |
| 2026-08-30 | 11:00:17 | 0.0mm | 0.00hrs | 20.2°C | 76% RH | 5.8m/s | 1,007.9hpa |
| 2026-08-30 | 12:00:17 | 0.0mm | 0.50hrs | 21.9°C | 73% RH | 5.8m/s | 1,006.9hpa |
| 2026-08-30 | 13:00:17 | 0.2mm | 0.22hrs | 20.2°C | 79% RH | 4.9m/s | 1,006.8hpa |
| 2026-08-30 | 14:00:17 | 2.4mm | 0.20hrs | 20.6°C | 86% RH | 4m/s | 1,006.0hpa |
| 2026-08-30 | 15:00:17 | 0.0mm | 0.33hrs | 21.1°C | 78% RH | 5.4m/s | 1,005.5hpa |
| 2026-08-30 | 16:00:18 | 0.0mm | 0.00hrs | 20.7°C | 76% RH | 5.8m/s | 1,004.7hpa |
| 2026-08-31 | 10:00:17 | 0.0mm | 0.87hrs | 19.0°C | 80% RH | 7.2m/s | 1,010.8hpa |
| 2026-08-31 | 11:00:17 | 0.0mm | 0.62hrs | 19.8°C | 77% RH | 7.6m/s | 1,011.4hpa |
| 2026-08-31 | 12:00:17 | 0.0mm | 0.52hrs | 20.8°C | 74% RH | 6.7m/s | 1,012.3hpa |
| 2026-08-31 | 13:00:17 | 0.0mm | 0.77hrs | 21.3°C | 72% RH | 7.6m/s | 1,013.0hpa |
| 2026-08-31 | 14:00:16 | 0.0mm | 0.40hrs | 20.8°C | 73% RH | 7.6m/s | 1,013.8hpa |
| 2026-08-31 | 15:00:17 | 0.0mm | 0.40hrs | 21.2°C | 69% RH | 6.7m/s | 1,014.6hpa |
| 2026-08-31 | 16:00:17 | 0.0mm | 0.12hrs | 20.8°C | 65% RH | 8.1m/s | 1,015.1hpa |
| 2026-09-01 | 10:00:16 | 0.0mm | 0.97hrs | 18.2°C | 81% RH | 1.3m/s | 1,020.2hpa |
| 2026-09-01 | 11:00:14 | 0.6mm | 0.55hrs | 17.6°C | 83% RH | 3.1m/s | 1,020.4hpa |
| 2026-09-01 | 12:00:15 | 0.0mm | 0.53hrs | 18.7°C | 77% RH | 5.4m/s | 1,020.2hpa |
| 2026-09-01 | 13:00:17 | 0.0mm | 1.00hrs | 20.1°C | 72% RH | 5.4m/s | 1,020.0hpa |
| 2026-09-01 | 14:00:17 | 0.0mm | 1.00hrs | 20.9°C | 67% RH | 6.7m/s | 1,019.8hpa |
| 2026-09-01 | 15:00:16 | 0.0mm | 0.87hrs | 21.1°C | 68% RH | 6.7m/s | 1,019.7hpa |
| 2026-09-01 | 16:00:18 | 0.0mm | 0.83hrs | 21.2°C | 67% RH | 5.4m/s | 1,019.4hpa |